Aérodrome :
LOGIN :

S'inscrire | Disclaimer

   EN    FR    IT 

 










Légende :    VFR   VFR Marginal   IFR   IFR Intensif   IFR Très Intensif
Visi : 
Plafond : 
>= 8 km
>= 3000ft
5 à 8 km
1000 à 3000 ft
1500m à 5 km
500 à 1000 ft
800 à 1500m
200 à 500 ft
< 800m
< 200 ft
Symboles :   Orages  Brouillard  Fortes neiges  Fortes précipitations  Vent > 20 kt
SIGMETs :   Divers  Orages  Givrage  Turbulence  Onde Orograph.  Cendres Volcan.






- Altitude de l'aérodrome : 416 ft
- Code IATA : OVD


LEAS - Asturias

DERNIER METAR :
  • 021730Z 11004KT 070V160 9999 BKN043 13/09 Q1025 NOSIG

METARs EXPIRÉS :
  • 021700Z 10005KT 070V130 9999 BKN043 13/09 Q1025 NOSIG
  • 021630Z 10005KT 070V140 9999 FEW044 14/09 Q1024 NOSIG
  • 021600Z 09004KT 060V150 9999 FEW035 SCT056 14/09 Q1024 NOSIG
  • 021530Z 09006KT 050V160 9999 FEW019 SCT056 15/10 Q1024 NOSIG
  • 021500Z 09005KT 050V130 9999 FEW019 SCT068 14/10 Q1024 NOSIG

TAF TAF LEAS
Valide du 02 à 15h jusqu'au 03 à 15h UTC


021400Z 0215/0315 VRB05KT 9999 FEW045 TX17/0215Z TN09/0307Z
PROB40
TEMPO 0215/0221 3000 RA SHRA BKN010 SCT030TCU
PROB40
TEMPO 0215/0218 06010KT
PROB40
TEMPO 0221/0308 3000 BR BKN010



MET'MAP, la Météo Aéronautique d'un coup d'oeil ! - Copyright ORBIFLY Décembre 2007 - Disclaimer

ORBIFLY MET'MAP TEAM :

Programmation & Développement : Alexandra Zaïnal
Sur une idée originale de : Baudouin d'Aumeries
Assistance à la programmation : Marc-Olivier Méhu
Soutien technique & logistique : Manuel Goepfert

Contact : metmap@orbifly.com




SOURCES & CREDITS :

   NOAA